sensor_id;sensor_type;location;lat;lon;timestamp;P1;durP1;ratioP1;P2;durP2;ratioP2
85054;SDS011;75391;48.300;16.352;2024-02-16T00:02:22;18.33;;;9.20;;
85054;SDS011;75391;48.300;16.352;2024-02-16T00:04:47;19.45;;;9.27;;
85054;SDS011;75391;48.300;16.352;2024-02-16T00:07:13;21.15;;;10.63;;
85054;SDS011;75391;48.300;16.352;2024-02-16T00:09:39;18.52;;;9.27;;
85054;SDS011;75391;48.300;16.352;2024-02-16T00:12:04;18.23;;;10.10;;
85054;SDS011;75391;48.300;16.352;2024-02-16T00:14:30;19.35;;;9.73;;
85054;SDS011;75391;48.300;16.352;2024-02-16T00:16:56;21.27;;;10.88;;
85054;SDS011;75391;48.300;16.352;2024-02-16T00:19:21;25.05;;;12.65;;
85054;SDS011;75391;48.300;16.352;2024-02-16T00:21:47;23.10;;;11.38;;
85054;SDS011;75391;48.300;16.352;2024-02-16T00:24:13;18.50;;;10.00;;
85054;SDS011;75391;48.300;16.352;2024-02-16T00:26:38;20.40;;;10.07;;
85054;SDS011;75391;48.300;16.352;2024-02-16T00:29:04;19.77;;;9.57;;
85054;SDS011;75391;48.300;16.352;2024-02-16T00:31:30;20.00;;;9.40;;
85054;SDS011;75391;48.300;16.352;2024-02-16T00:33:56;19.23;;;10.93;;
85054;SDS011;75391;48.300;16.352;2024-02-16T00:36:21;20.10;;;10.13;;
85054;SDS011;75391;48.300;16.352;2024-02-16T00:38:47;22.85;;;9.77;;
85054;SDS011;75391;48.300;16.352;2024-02-16T00:41:19;21.00;;;9.80;;
85054;SDS011;75391;48.300;16.352;2024-02-16T00:43:45;21.63;;;9.63;;
85054;SDS011;75391;48.300;16.352;2024-02-16T00:46:11;18.92;;;10.35;;
85054;SDS011;75391;48.300;16.352;2024-02-16T00:48:36;19.48;;;9.68;;
85054;SDS011;75391;48.300;16.352;2024-02-16T00:51:02;19.35;;;9.98;;
85054;SDS011;75391;48.300;16.352;2024-02-16T00:53:28;18.65;;;9.85;;
85054;SDS011;75391;48.300;16.352;2024-02-16T00:55:54;20.23;;;9.68;;
85054;SDS011;75391;48.300;16.352;2024-02-16T00:58:19;20.80;;;9.65;;
85054;SDS011;75391;48.300;16.352;2024-02-16T01:00:45;19.38;;;9.50;;
85054;SDS011;75391;48.300;16.352;2024-02-16T01:03:10;17.90;;;9.43;;
85054;SDS011;75391;48.300;16.352;2024-02-16T01:05:36;19.13;;;9.27;;
85054;SDS011;75391;48.300;16.352;2024-02-16T01:08:02;19.08;;;9.57;;
85054;SDS011;75391;48.300;16.352;2024-02-16T01:10:27;19.60;;;9.82;;
85054;SDS011;75391;48.300;16.352;2024-02-16T01:12:53;22.73;;;9.73;;
85054;SDS011;75391;48.300;16.352;2024-02-16T01:15:19;22.00;;;10.25;;
85054;SDS011;75391;48.300;16.352;2024-02-16T01:17:44;19.58;;;9.57;;
85054;SDS011;75391;48.300;16.352;2024-02-16T01:20:10;19.25;;;9.32;;
85054;SDS011;75391;48.300;16.352;2024-02-16T01:22:36;20.98;;;10.25;;
85054;SDS011;75391;48.300;16.352;2024-02-16T01:25:02;21.95;;;10.30;;
85054;SDS011;75391;48.300;16.352;2024-02-16T01:27:28;18.85;;;9.43;;
85054;SDS011;75391;48.300;16.352;2024-02-16T01:29:53;20.35;;;9.75;;
85054;SDS011;75391;48.300;16.352;2024-02-16T01:32:19;18.85;;;9.45;;
85054;SDS011;75391;48.300;16.352;2024-02-16T01:34:45;20.42;;;9.45;;
85054;SDS011;75391;48.300;16.352;2024-02-16T01:37:10;18.35;;;9.52;;
85054;SDS011;75391;48.300;16.352;2024-02-16T01:39:36;20.77;;;9.38;;
85054;SDS011;75391;48.300;16.352;2024-02-16T01:42:02;19.23;;;9.57;;
85054;SDS011;75391;48.300;16.352;2024-02-16T01:44:27;18.25;;;9.05;;
85054;SDS011;75391;48.300;16.352;2024-02-16T01:46:53;22.67;;;10.40;;
85054;SDS011;75391;48.300;16.352;2024-02-16T01:49:19;21.17;;;10.05;;
85054;SDS011;75391;48.300;16.352;2024-02-16T01:51:45;19.20;;;9.52;;
85054;SDS011;75391;48.300;16.352;2024-02-16T01:54:11;18.55;;;9.55;;
85054;SDS011;75391;48.300;16.352;2024-02-16T01:56:37;20.20;;;10.35;;
85054;SDS011;75391;48.300;16.352;2024-02-16T01:59:03;20.27;;;9.88;;
85054;SDS011;75391;48.300;16.352;2024-02-16T02:01:29;20.30;;;9.30;;
85054;SDS011;75391;48.300;16.352;2024-02-16T02:03:55;19.90;;;8.95;;
85054;SDS011;75391;48.300;16.352;2024-02-16T02:06:21;18.00;;;9.10;;
85054;SDS011;75391;48.300;16.352;2024-02-16T02:08:46;20.35;;;8.98;;
85054;SDS011;75391;48.300;16.352;2024-02-16T02:11:12;19.38;;;8.90;;
85054;SDS011;75391;48.300;16.352;2024-02-16T02:13:38;20.33;;;9.85;;
85054;SDS011;75391;48.300;16.352;2024-02-16T02:16:04;20.58;;;9.07;;
85054;SDS011;75391;48.300;16.352;2024-02-16T02:18:31;17.55;;;8.75;;
85054;SDS011;75391;48.300;16.352;2024-02-16T02:20:57;18.85;;;9.18;;
85054;SDS011;75391;48.300;16.352;2024-02-16T02:23:22;16.92;;;8.90;;
85054;SDS011;75391;48.300;16.352;2024-02-16T02:25:48;18.58;;;8.60;;
85054;SDS011;75391;48.300;16.352;2024-02-16T02:28:14;18.48;;;8.77;;
85054;SDS011;75391;48.300;16.352;2024-02-16T02:30:39;18.13;;;8.88;;
85054;SDS011;75391;48.300;16.352;2024-02-16T02:33:05;17.23;;;8.55;;
85054;SDS011;75391;48.300;16.352;2024-02-16T02:35:31;17.42;;;8.07;;
85054;SDS011;75391;48.300;16.352;2024-02-16T02:37:57;18.75;;;8.30;;
85054;SDS011;75391;48.300;16.352;2024-02-16T02:40:22;17.50;;;8.48;;
85054;SDS011;75391;48.300;16.352;2024-02-16T02:42:48;18.05;;;8.85;;
85054;SDS011;75391;48.300;16.352;2024-02-16T02:45:14;18.00;;;8.30;;
85054;SDS011;75391;48.300;16.352;2024-02-16T02:47:39;17.52;;;7.72;;
85054;SDS011;75391;48.300;16.352;2024-02-16T02:50:05;16.15;;;7.93;;
85054;SDS011;75391;48.300;16.352;2024-02-16T02:52:31;16.67;;;7.53;;
85054;SDS011;75391;48.300;16.352;2024-02-16T02:54:57;17.55;;;7.70;;
85054;SDS011;75391;48.300;16.352;2024-02-16T02:57:23;13.85;;;6.65;;
85054;SDS011;75391;48.300;16.352;2024-02-16T02:59:48;15.18;;;7.43;;
85054;SDS011;75391;48.300;16.352;2024-02-16T03:02:14;14.70;;;7.95;;
85054;SDS011;75391;48.300;16.352;2024-02-16T03:04:39;16.45;;;7.63;;
85054;SDS011;75391;48.300;16.352;2024-02-16T03:07:05;15.43;;;7.45;;
85054;SDS011;75391;48.300;16.352;2024-02-16T03:09:31;16.48;;;7.80;;
85054;SDS011;75391;48.300;16.352;2024-02-16T03:11:57;14.95;;;6.65;;
85054;SDS011;75391;48.300;16.352;2024-02-16T03:14:22;15.85;;;7.80;;
85054;SDS011;75391;48.300;16.352;2024-02-16T03:16:48;15.80;;;7.30;;
85054;SDS011;75391;48.300;16.352;2024-02-16T03:19:14;16.08;;;7.72;;
85054;SDS011;75391;48.300;16.352;2024-02-16T03:21:39;14.23;;;7.35;;
85054;SDS011;75391;48.300;16.352;2024-02-16T03:24:05;14.63;;;8.00;;
85054;SDS011;75391;48.300;16.352;2024-02-16T03:26:31;16.90;;;8.15;;
85054;SDS011;75391;48.300;16.352;2024-02-16T03:28:56;17.35;;;7.43;;
85054;SDS011;75391;48.300;16.352;2024-02-16T03:31:23;17.35;;;7.68;;
85054;SDS011;75391;48.300;16.352;2024-02-16T03:33:49;13.90;;;7.22;;
85054;SDS011;75391;48.300;16.352;2024-02-16T03:36:16;15.90;;;7.13;;
85054;SDS011;75391;48.300;16.352;2024-02-16T03:38:43;16.45;;;7.30;;
85054;SDS011;75391;48.300;16.352;2024-02-16T03:41:13;16.10;;;7.55;;
85054;SDS011;75391;48.300;16.352;2024-02-16T03:43:40;16.45;;;7.28;;
85054;SDS011;75391;48.300;16.352;2024-02-16T03:46:06;15.75;;;7.78;;
85054;SDS011;75391;48.300;16.352;2024-02-16T03:48:32;15.82;;;7.50;;
85054;SDS011;75391;48.300;16.352;2024-02-16T03:50:57;14.80;;;7.15;;
85054;SDS011;75391;48.300;16.352;2024-02-16T03:53:23;17.63;;;7.03;;
85054;SDS011;75391;48.300;16.352;2024-02-16T03:55:49;14.70;;;6.47;;
85054;SDS011;75391;48.300;16.352;2024-02-16T03:58:14;15.15;;;6.82;;
85054;SDS011;75391;48.300;16.352;2024-02-16T04:00:40;14.02;;;7.10;;
85054;SDS011;75391;48.300;16.352;2024-02-16T04:03:06;15.10;;;7.07;;
85054;SDS011;75391;48.300;16.352;2024-02-16T04:05:32;15.57;;;8.35;;
85054;SDS011;75391;48.300;16.352;2024-02-16T04:07:57;14.00;;;6.82;;
85054;SDS011;75391;48.300;16.352;2024-02-16T04:10:23;15.50;;;7.07;;
85054;SDS011;75391;48.300;16.352;2024-02-16T04:12:49;15.30;;;6.78;;
85054;SDS011;75391;48.300;16.352;2024-02-16T04:15:14;17.10;;;7.30;;
85054;SDS011;75391;48.300;16.352;2024-02-16T04:17:40;14.10;;;7.13;;
85054;SDS011;75391;48.300;16.352;2024-02-16T04:20:06;13.70;;;6.75;;
85054;SDS011;75391;48.300;16.352;2024-02-16T04:22:32;16.27;;;7.47;;
85054;SDS011;75391;48.300;16.352;2024-02-16T04:24:57;15.75;;;7.00;;
85054;SDS011;75391;48.300;16.352;2024-02-16T04:27:23;14.40;;;7.32;;
85054;SDS011;75391;48.300;16.352;2024-02-16T04:29:48;14.15;;;6.43;;
85054;SDS011;75391;48.300;16.352;2024-02-16T04:32:14;15.15;;;7.18;;
85054;SDS011;75391;48.300;16.352;2024-02-16T04:34:40;14.77;;;6.47;;
85054;SDS011;75391;48.300;16.352;2024-02-16T04:37:06;13.32;;;6.50;;
85054;SDS011;75391;48.300;16.352;2024-02-16T04:39:31;16.27;;;7.63;;
85054;SDS011;75391;48.300;16.352;2024-02-16T04:41:57;13.90;;;6.88;;
85054;SDS011;75391;48.300;16.352;2024-02-16T04:44:22;14.02;;;6.93;;
85054;SDS011;75391;48.300;16.352;2024-02-16T04:46:50;13.63;;;6.70;;
85054;SDS011;75391;48.300;16.352;2024-02-16T04:49:16;15.18;;;6.82;;
85054;SDS011;75391;48.300;16.352;2024-02-16T04:51:41;13.73;;;6.78;;
85054;SDS011;75391;48.300;16.352;2024-02-16T04:54:07;14.70;;;6.95;;
85054;SDS011;75391;48.300;16.352;2024-02-16T04:56:32;13.25;;;6.38;;
85054;SDS011;75391;48.300;16.352;2024-02-16T04:58:58;13.85;;;6.45;;
85054;SDS011;75391;48.300;16.352;2024-02-16T05:01:24;13.32;;;6.95;;
85054;SDS011;75391;48.300;16.352;2024-02-16T05:03:49;14.73;;;6.45;;
85054;SDS011;75391;48.300;16.352;2024-02-16T05:06:15;15.02;;;6.35;;
85054;SDS011;75391;48.300;16.352;2024-02-16T05:08:41;15.88;;;6.57;;
85054;SDS011;75391;48.300;16.352;2024-02-16T05:11:06;14.57;;;7.28;;
85054;SDS011;75391;48.300;16.352;2024-02-16T05:13:32;13.15;;;6.75;;
85054;SDS011;75391;48.300;16.352;2024-02-16T05:15:57;12.25;;;6.28;;
85054;SDS011;75391;48.300;16.352;2024-02-16T05:18:23;13.18;;;6.20;;
85054;SDS011;75391;48.300;16.352;2024-02-16T05:20:49;13.32;;;6.57;;
85054;SDS011;75391;48.300;16.352;2024-02-16T05:23:14;13.82;;;6.80;;
85054;SDS011;75391;48.300;16.352;2024-02-16T05:25:40;14.43;;;6.88;;
85054;SDS011;75391;48.300;16.352;2024-02-16T05:28:06;13.38;;;6.85;;
85054;SDS011;75391;48.300;16.352;2024-02-16T05:30:31;13.50;;;6.75;;
85054;SDS011;75391;48.300;16.352;2024-02-16T05:32:57;15.20;;;7.10;;
85054;SDS011;75391;48.300;16.352;2024-02-16T05:35:23;13.93;;;7.47;;
85054;SDS011;75391;48.300;16.352;2024-02-16T05:37:48;15.48;;;6.90;;
85054;SDS011;75391;48.300;16.352;2024-02-16T05:40:14;14.23;;;7.22;;
85054;SDS011;75391;48.300;16.352;2024-02-16T05:42:40;14.77;;;7.18;;
85054;SDS011;75391;48.300;16.352;2024-02-16T05:45:05;13.55;;;6.55;;
85054;SDS011;75391;48.300;16.352;2024-02-16T05:47:31;13.65;;;6.57;;
85054;SDS011;75391;48.300;16.352;2024-02-16T05:49:57;13.80;;;7.20;;
85054;SDS011;75391;48.300;16.352;2024-02-16T05:52:23;14.98;;;7.50;;
85054;SDS011;75391;48.300;16.352;2024-02-16T05:54:48;13.40;;;6.55;;
85054;SDS011;75391;48.300;16.352;2024-02-16T05:57:14;12.98;;;7.07;;
85054;SDS011;75391;48.300;16.352;2024-02-16T05:59:40;12.50;;;6.55;;
85054;SDS011;75391;48.300;16.352;2024-02-16T06:02:06;14.70;;;7.00;;
85054;SDS011;75391;48.300;16.352;2024-02-16T06:04:33;13.88;;;6.65;;
85054;SDS011;75391;48.300;16.352;2024-02-16T06:06:58;13.38;;;6.47;;
85054;SDS011;75391;48.300;16.352;2024-02-16T06:09:24;14.18;;;6.95;;
85054;SDS011;75391;48.300;16.352;2024-02-16T06:11:50;14.45;;;6.78;;
85054;SDS011;75391;48.300;16.352;2024-02-16T06:14:16;13.73;;;6.60;;
85054;SDS011;75391;48.300;16.352;2024-02-16T06:16:42;14.98;;;6.65;;
85054;SDS011;75391;48.300;16.352;2024-02-16T06:19:08;14.82;;;6.70;;
85054;SDS011;75391;48.300;16.352;2024-02-16T06:21:35;12.90;;;6.85;;
85054;SDS011;75391;48.300;16.352;2024-02-16T06:24:01;14.25;;;6.45;;
85054;SDS011;75391;48.300;16.352;2024-02-16T06:26:26;13.43;;;6.78;;
85054;SDS011;75391;48.300;16.352;2024-02-16T06:28:52;16.48;;;6.78;;
85054;SDS011;75391;48.300;16.352;2024-02-16T06:31:18;16.17;;;7.22;;
85054;SDS011;75391;48.300;16.352;2024-02-16T06:33:43;15.57;;;7.47;;
85054;SDS011;75391;48.300;16.352;2024-02-16T06:36:09;14.32;;;6.82;;
85054;SDS011;75391;48.300;16.352;2024-02-16T06:38:35;16.45;;;6.72;;
85054;SDS011;75391;48.300;16.352;2024-02-16T06:41:02;13.52;;;6.68;;
85054;SDS011;75391;48.300;16.352;2024-02-16T06:43:28;14.88;;;7.07;;
85054;SDS011;75391;48.300;16.352;2024-02-16T06:45:53;13.48;;;6.70;;
85054;SDS011;75391;48.300;16.352;2024-02-16T06:48:19;12.07;;;5.97;;
85054;SDS011;75391;48.300;16.352;2024-02-16T06:50:44;12.35;;;6.22;;
85054;SDS011;75391;48.300;16.352;2024-02-16T06:53:10;14.20;;;7.10;;
85054;SDS011;75391;48.300;16.352;2024-02-16T06:55:36;15.10;;;6.95;;
85054;SDS011;75391;48.300;16.352;2024-02-16T06:58:01;14.15;;;7.05;;
85054;SDS011;75391;48.300;16.352;2024-02-16T07:00:27;12.82;;;6.63;;
85054;SDS011;75391;48.300;16.352;2024-02-16T07:02:53;12.95;;;6.30;;
85054;SDS011;75391;48.300;16.352;2024-02-16T07:05:18;15.27;;;6.70;;
85054;SDS011;75391;48.300;16.352;2024-02-16T07:07:44;16.23;;;6.40;;
85054;SDS011;75391;48.300;16.352;2024-02-16T07:10:09;15.95;;;6.50;;
85054;SDS011;75391;48.300;16.352;2024-02-16T07:12:35;13.77;;;7.78;;
85054;SDS011;75391;48.300;16.352;2024-02-16T07:15:01;16.55;;;6.90;;
85054;SDS011;75391;48.300;16.352;2024-02-16T07:17:26;13.57;;;6.40;;
85054;SDS011;75391;48.300;16.352;2024-02-16T07:19:52;17.90;;;6.93;;
85054;SDS011;75391;48.300;16.352;2024-02-16T07:22:17;10.70;;;5.78;;
85054;SDS011;75391;48.300;16.352;2024-02-16T07:24:43;13.95;;;6.30;;
85054;SDS011;75391;48.300;16.352;2024-02-16T07:27:10;12.18;;;6.07;;
85054;SDS011;75391;48.300;16.352;2024-02-16T07:29:54;12.68;;;5.93;;
85054;SDS011;75391;48.300;16.352;2024-02-16T07:32:38;15.98;;;7.05;;
85054;SDS011;75391;48.300;16.352;2024-02-16T07:35:04;12.90;;;6.00;;
85054;SDS011;75391;48.300;16.352;2024-02-16T07:37:29;13.40;;;6.60;;
85054;SDS011;75391;48.300;16.352;2024-02-16T07:39:55;12.90;;;5.68;;
85054;SDS011;75391;48.300;16.352;2024-02-16T07:42:39;12.00;;;5.97;;
85054;SDS011;75391;48.300;16.352;2024-02-16T07:45:23;14.35;;;6.07;;
85054;SDS011;75391;48.300;16.352;2024-02-16T08:01:35;11.50;;;5.45;;
85054;SDS011;75391;48.300;16.352;2024-02-16T08:04:00;11.52;;;5.82;;
85054;SDS011;75391;48.300;16.352;2024-02-16T08:06:26;11.25;;;5.45;;
85054;SDS011;75391;48.300;16.352;2024-02-16T08:08:52;12.57;;;5.90;;
85054;SDS011;75391;48.300;16.352;2024-02-16T08:11:18;11.75;;;5.32;;
85054;SDS011;75391;48.300;16.352;2024-02-16T08:13:44;12.73;;;5.88;;
85054;SDS011;75391;48.300;16.352;2024-02-16T08:16:10;12.95;;;6.40;;
85054;SDS011;75391;48.300;16.352;2024-02-16T08:18:35;14.55;;;6.20;;
85054;SDS011;75391;48.300;16.352;2024-02-16T08:21:01;14.73;;;6.50;;
85054;SDS011;75391;48.300;16.352;2024-02-16T08:23:27;11.63;;;6.00;;
85054;SDS011;75391;48.300;16.352;2024-02-16T08:25:52;12.05;;;5.53;;
85054;SDS011;75391;48.300;16.352;2024-02-16T08:28:18;12.40;;;5.40;;
85054;SDS011;75391;48.300;16.352;2024-02-16T08:30:44;12.15;;;5.70;;
85054;SDS011;75391;48.300;16.352;2024-02-16T08:33:10;12.20;;;5.95;;
85054;SDS011;75391;48.300;16.352;2024-02-16T08:35:35;14.07;;;5.32;;
85054;SDS011;75391;48.300;16.352;2024-02-16T08:38:01;12.38;;;5.20;;
85054;SDS011;75391;48.300;16.352;2024-02-16T08:40:27;10.90;;;5.38;;
85054;SDS011;75391;48.300;16.352;2024-02-16T08:42:52;10.95;;;4.93;;
85054;SDS011;75391;48.300;16.352;2024-02-16T08:45:18;11.00;;;5.43;;
85054;SDS011;75391;48.300;16.352;2024-02-16T08:47:44;11.15;;;5.07;;
85054;SDS011;75391;48.300;16.352;2024-02-16T08:50:10;13.35;;;5.55;;
85054;SDS011;75391;48.300;16.352;2024-02-16T08:52:35;11.43;;;5.22;;
85054;SDS011;75391;48.300;16.352;2024-02-16T08:55:01;10.82;;;5.40;;
85054;SDS011;75391;48.300;16.352;2024-02-16T08:57:27;10.80;;;5.45;;
85054;SDS011;75391;48.300;16.352;2024-02-16T08:59:52;9.55;;;4.63;;
85054;SDS011;75391;48.300;16.352;2024-02-16T09:02:18;11.70;;;5.30;;
85054;SDS011;75391;48.300;16.352;2024-02-16T09:04:45;10.27;;;4.90;;
85054;SDS011;75391;48.300;16.352;2024-02-16T09:07:11;10.85;;;4.78;;
85054;SDS011;75391;48.300;16.352;2024-02-16T09:09:36;9.07;;;4.60;;
85054;SDS011;75391;48.300;16.352;2024-02-16T09:12:02;9.45;;;4.85;;
85054;SDS011;75391;48.300;16.352;2024-02-16T09:14:28;9.35;;;4.72;;
85054;SDS011;75391;48.300;16.352;2024-02-16T09:16:53;9.30;;;4.45;;
85054;SDS011;75391;48.300;16.352;2024-02-16T09:19:19;10.98;;;4.43;;
85054;SDS011;75391;48.300;16.352;2024-02-16T09:21:45;8.45;;;4.22;;
85054;SDS011;75391;48.300;16.352;2024-02-16T09:24:11;10.98;;;4.32;;
85054;SDS011;75391;48.300;16.352;2024-02-16T09:26:37;9.48;;;4.15;;
85054;SDS011;75391;48.300;16.352;2024-02-16T09:29:02;8.27;;;4.05;;
85054;SDS011;75391;48.300;16.352;2024-02-16T09:31:28;7.85;;;3.85;;
85054;SDS011;75391;48.300;16.352;2024-02-16T09:33:54;8.98;;;3.90;;
85054;SDS011;75391;48.300;16.352;2024-02-16T09:36:19;8.50;;;4.00;;
85054;SDS011;75391;48.300;16.352;2024-02-16T09:38:45;8.93;;;4.15;;
85054;SDS011;75391;48.300;16.352;2024-02-16T09:41:11;9.68;;;4.03;;
85054;SDS011;75391;48.300;16.352;2024-02-16T09:43:38;8.35;;;4.10;;
85054;SDS011;75391;48.300;16.352;2024-02-16T09:46:04;8.57;;;4.03;;
85054;SDS011;75391;48.300;16.352;2024-02-16T09:48:29;8.85;;;4.00;;
85054;SDS011;75391;48.300;16.352;2024-02-16T09:50:55;8.23;;;4.13;;
85054;SDS011;75391;48.300;16.352;2024-02-16T09:53:23;9.25;;;4.22;;
85054;SDS011;75391;48.300;16.352;2024-02-16T09:58:19;9.20;;;3.63;;
85054;SDS011;75391;48.300;16.352;2024-02-16T10:00:48;9.00;;;4.40;;
85054;SDS011;75391;48.300;16.352;2024-02-16T10:03:28;7.57;;;3.55;;
85054;SDS011;75391;48.300;16.352;2024-02-16T10:06:04;7.28;;;3.60;;
85054;SDS011;75391;48.300;16.352;2024-02-16T10:08:30;6.75;;;3.42;;
85054;SDS011;75391;48.300;16.352;2024-02-16T10:11:02;9.25;;;3.63;;
85054;SDS011;75391;48.300;16.352;2024-02-16T10:13:29;8.38;;;3.22;;
85054;SDS011;75391;48.300;16.352;2024-02-16T10:16:06;7.72;;;3.60;;
85054;SDS011;75391;48.300;16.352;2024-02-16T10:18:32;7.30;;;3.10;;
85054;SDS011;75391;48.300;16.352;2024-02-16T10:20:58;5.82;;;2.92;;
85054;SDS011;75391;48.300;16.352;2024-02-16T10:23:24;6.82;;;3.20;;
85054;SDS011;75391;48.300;16.352;2024-02-16T10:25:50;5.80;;;3.03;;
85054;SDS011;75391;48.300;16.352;2024-02-16T10:28:15;5.30;;;2.70;;
85054;SDS011;75391;48.300;16.352;2024-02-16T10:30:41;5.43;;;2.85;;
85054;SDS011;75391;48.300;16.352;2024-02-16T10:33:07;9.27;;;2.83;;
85054;SDS011;75391;48.300;16.352;2024-02-16T10:35:37;4.88;;;2.65;;
85054;SDS011;75391;48.300;16.352;2024-02-16T10:38:03;7.18;;;3.08;;
85054;SDS011;75391;48.300;16.352;2024-02-16T10:40:32;5.38;;;2.90;;
85054;SDS011;75391;48.300;16.352;2024-02-16T10:43:03;6.60;;;3.13;;
85054;SDS011;75391;48.300;16.352;2024-02-16T10:45:31;6.93;;;2.92;;
85054;SDS011;75391;48.300;16.352;2024-02-16T10:47:58;6.28;;;3.15;;
85054;SDS011;75391;48.300;16.352;2024-02-16T10:50:24;5.72;;;2.40;;
85054;SDS011;75391;48.300;16.352;2024-02-16T10:52:50;6.25;;;2.47;;
85054;SDS011;75391;48.300;16.352;2024-02-16T10:55:19;5.10;;;2.70;;
85054;SDS011;75391;48.300;16.352;2024-02-16T10:57:45;5.32;;;2.22;;
85054;SDS011;75391;48.300;16.352;2024-02-16T11:00:10;5.65;;;2.30;;
85054;SDS011;75391;48.300;16.352;2024-02-16T11:02:52;4.35;;;2.22;;
85054;SDS011;75391;48.300;16.352;2024-02-16T11:05:19;7.43;;;2.50;;
85054;SDS011;75391;48.300;16.352;2024-02-16T11:07:44;5.40;;;2.25;;
85054;SDS011;75391;48.300;16.352;2024-02-16T11:10:13;5.45;;;2.22;;
85054;SDS011;75391;48.300;16.352;2024-02-16T11:12:39;4.38;;;2.33;;
85054;SDS011;75391;48.300;16.352;2024-02-16T11:15:10;4.72;;;2.10;;
85054;SDS011;75391;48.300;16.352;2024-02-16T11:17:35;6.35;;;2.20;;
85054;SDS011;75391;48.300;16.352;2024-02-16T11:20:01;4.90;;;2.13;;
85054;SDS011;75391;48.300;16.352;2024-02-16T11:22:27;4.13;;;1.90;;
85054;SDS011;75391;48.300;16.352;2024-02-16T11:24:53;4.05;;;1.88;;
85054;SDS011;75391;48.300;16.352;2024-02-16T11:27:19;3.28;;;2.00;;
85054;SDS011;75391;48.300;16.352;2024-02-16T11:29:45;3.72;;;2.00;;
85054;SDS011;75391;48.300;16.352;2024-02-16T11:32:11;4.10;;;2.10;;
85054;SDS011;75391;48.300;16.352;2024-02-16T11:34:37;3.90;;;1.90;;
85054;SDS011;75391;48.300;16.352;2024-02-16T11:37:03;4.40;;;2.08;;
85054;SDS011;75391;48.300;16.352;2024-02-16T11:39:30;2.97;;;1.73;;
85054;SDS011;75391;48.300;16.352;2024-02-16T11:42:02;4.03;;;1.85;;
85054;SDS011;75391;48.300;16.352;2024-02-16T11:44:32;4.53;;;1.83;;
85054;SDS011;75391;48.300;16.352;2024-02-16T11:46:59;3.80;;;1.73;;
85054;SDS011;75391;48.300;16.352;2024-02-16T11:49:27;3.28;;;1.55;;
85054;SDS011;75391;48.300;16.352;2024-02-16T11:51:56;3.28;;;1.70;;
85054;SDS011;75391;48.300;16.352;2024-02-16T11:54:24;2.70;;;1.60;;
85054;SDS011;75391;48.300;16.352;2024-02-16T11:56:51;5.32;;;1.48;;
85054;SDS011;75391;48.300;16.352;2024-02-16T11:59:17;2.33;;;1.48;;
85054;SDS011;75391;48.300;16.352;2024-02-16T12:04:23;2.08;;;1.35;;
85054;SDS011;75391;48.300;16.352;2024-02-16T12:06:54;2.20;;;1.40;;
85054;SDS011;75391;48.300;16.352;2024-02-16T12:09:25;2.45;;;1.58;;
85054;SDS011;75391;48.300;16.352;2024-02-16T12:11:52;2.58;;;1.50;;
85054;SDS011;75391;48.300;16.352;2024-02-16T12:14:19;2.17;;;1.40;;
85054;SDS011;75391;48.300;16.352;2024-02-16T12:16:47;4.15;;;1.80;;
85054;SDS011;75391;48.300;16.352;2024-02-16T12:19:18;3.47;;;1.60;;
85054;SDS011;75391;48.300;16.352;2024-02-16T12:21:44;3.70;;;1.52;;
85054;SDS011;75391;48.300;16.352;2024-02-16T12:24:09;4.72;;;1.50;;
85054;SDS011;75391;48.300;16.352;2024-02-16T12:26:35;2.42;;;1.50;;
85054;SDS011;75391;48.300;16.352;2024-02-16T12:29:01;2.28;;;1.35;;
85054;SDS011;75391;48.300;16.352;2024-02-16T12:31:26;1.88;;;1.30;;
85054;SDS011;75391;48.300;16.352;2024-02-16T12:33:52;3.40;;;1.33;;
85054;SDS011;75391;48.300;16.352;2024-02-16T12:36:18;2.08;;;1.40;;
85054;SDS011;75391;48.300;16.352;2024-02-16T12:38:43;2.53;;;1.35;;
85054;SDS011;75391;48.300;16.352;2024-02-16T12:41:09;2.40;;;1.35;;
85054;SDS011;75391;48.300;16.352;2024-02-16T12:43:35;3.17;;;1.50;;
85054;SDS011;75391;48.300;16.352;2024-02-16T12:46:01;3.50;;;1.52;;
85054;SDS011;75391;48.300;16.352;2024-02-16T12:48:26;2.28;;;1.50;;
85054;SDS011;75391;48.300;16.352;2024-02-16T12:50:52;3.22;;;1.42;;
85054;SDS011;75391;48.300;16.352;2024-02-16T12:53:18;2.97;;;1.80;;
85054;SDS011;75391;48.300;16.352;2024-02-16T12:55:44;2.47;;;1.48;;
85054;SDS011;75391;48.300;16.352;2024-02-16T12:58:10;3.28;;;1.42;;
85054;SDS011;75391;48.300;16.352;2024-02-16T13:00:35;3.17;;;1.73;;
85054;SDS011;75391;48.300;16.352;2024-02-16T13:03:01;2.55;;;1.42;;
85054;SDS011;75391;48.300;16.352;2024-02-16T13:05:27;2.70;;;1.50;;
85054;SDS011;75391;48.300;16.352;2024-02-16T13:07:52;3.50;;;1.63;;
85054;SDS011;75391;48.300;16.352;2024-02-16T13:10:18;3.97;;;1.63;;
85054;SDS011;75391;48.300;16.352;2024-02-16T13:12:44;2.75;;;1.73;;
85054;SDS011;75391;48.300;16.352;2024-02-16T13:15:09;3.55;;;1.70;;
85054;SDS011;75391;48.300;16.352;2024-02-16T13:17:35;3.28;;;1.95;;
85054;SDS011;75391;48.300;16.352;2024-02-16T13:20:01;3.05;;;1.83;;
85054;SDS011;75391;48.300;16.352;2024-02-16T13:22:27;5.18;;;2.35;;
85054;SDS011;75391;48.300;16.352;2024-02-16T13:24:52;3.38;;;1.92;;
85054;SDS011;75391;48.300;16.352;2024-02-16T13:27:18;4.90;;;2.42;;
85054;SDS011;75391;48.300;16.352;2024-02-16T13:29:44;3.47;;;2.00;;
85054;SDS011;75391;48.300;16.352;2024-02-16T13:32:09;3.55;;;2.00;;
85054;SDS011;75391;48.300;16.352;2024-02-16T13:34:35;6.25;;;2.25;;
85054;SDS011;75391;48.300;16.352;2024-02-16T13:37:01;4.28;;;2.00;;
85054;SDS011;75391;48.300;16.352;2024-02-16T13:39:26;4.40;;;1.70;;
85054;SDS011;75391;48.300;16.352;2024-02-16T13:41:52;3.50;;;1.92;;
85054;SDS011;75391;48.300;16.352;2024-02-16T13:44:18;5.10;;;2.22;;
85054;SDS011;75391;48.300;16.352;2024-02-16T13:46:46;4.13;;;2.25;;
85054;SDS011;75391;48.300;16.352;2024-02-16T13:49:12;3.83;;;2.00;;
85054;SDS011;75391;48.300;16.352;2024-02-16T13:51:37;4.53;;;2.10;;
85054;SDS011;75391;48.300;16.352;2024-02-16T13:54:03;3.95;;;2.03;;
85054;SDS011;75391;48.300;16.352;2024-02-16T13:56:28;4.05;;;2.10;;
85054;SDS011;75391;48.300;16.352;2024-02-16T13:58:54;3.35;;;1.77;;
85054;SDS011;75391;48.300;16.352;2024-02-16T14:01:20;3.58;;;1.88;;
85054;SDS011;75391;48.300;16.352;2024-02-16T14:03:45;3.67;;;2.20;;
85054;SDS011;75391;48.300;16.352;2024-02-16T14:06:11;4.53;;;2.13;;
85054;SDS011;75391;48.300;16.352;2024-02-16T14:08:37;4.13;;;2.10;;
85054;SDS011;75391;48.300;16.352;2024-02-16T14:11:03;4.18;;;2.17;;
85054;SDS011;75391;48.300;16.352;2024-02-16T14:13:28;4.10;;;2.13;;
85054;SDS011;75391;48.300;16.352;2024-02-16T14:15:54;5.03;;;2.22;;
85054;SDS011;75391;48.300;16.352;2024-02-16T14:18:19;4.18;;;2.50;;
85054;SDS011;75391;48.300;16.352;2024-02-16T14:20:45;4.22;;;2.08;;
85054;SDS011;75391;48.300;16.352;2024-02-16T14:23:11;5.53;;;2.80;;
85054;SDS011;75391;48.300;16.352;2024-02-16T14:25:37;5.53;;;2.80;;
85054;SDS011;75391;48.300;16.352;2024-02-16T14:28:03;3.97;;;2.25;;
85054;SDS011;75391;48.300;16.352;2024-02-16T14:30:29;4.68;;;2.42;;
85054;SDS011;75391;48.300;16.352;2024-02-16T14:32:55;4.70;;;2.17;;
85054;SDS011;75391;48.300;16.352;2024-02-16T14:35:20;4.80;;;2.25;;
85054;SDS011;75391;48.300;16.352;2024-02-16T14:37:46;3.50;;;2.13;;
85054;SDS011;75391;48.300;16.352;2024-02-16T14:40:11;5.15;;;2.30;;